Time;durP1;ratioP1;P1;durP2;ratioP2;P2;SDS_P1;SDS_P2;PMS_P1;PMS_P2;Temp;Humidity;BMP_temperature;BMP_pressure;BME280_temperature;BME280_humidity;BME280_pressure;Samples;Min_cycle;Max_cycle;Signal;HPM_P1;HPM_P2
2024/02/13 00:00:32;;;;;;;13.88;10.50;;;;;;;5.52;88.24;97941.28;5071854;28;20025;-74
2024/02/13 00:02:58;;;;;;;14.95;11.90;;;;;;;5.54;88.42;97955.22;5072244;28;20107;-74
2024/02/13 00:05:24;;;;;;;17.40;13.20;;;;;;;5.50;88.27;97954.03;5051392;28;20029;-73
2024/02/13 00:07:50;;;;;;;18.20;13.25;;;;;;;5.39;87.90;97946.72;5067884;28;20129;-74
2024/02/13 00:10:16;;;;;;;16.13;12.00;;;;;;;5.40;87.88;97975.06;5065992;28;20055;-73
2024/02/13 00:12:41;;;;;;;19.38;13.93;;;;;;;5.27;88.17;97956.50;5070253;28;20404;-73
2024/02/13 00:15:10;;;;;;;15.18;12.00;;;;;;;5.14;87.99;97953.91;5070002;28;20393;-74
2024/02/13 00:17:35;;;;;;;17.38;13.10;;;;;;;5.10;87.50;97951.88;5069968;28;20064;-73
2024/02/13 00:20:04;;;;;;;17.30;15.35;;;;;;;5.22;88.11;97977.66;5053349;28;20047;-74
2024/02/13 00:22:29;;;;;;;17.45;15.35;;;;;;;5.14;87.97;97969.91;5074090;28;20036;-74
2024/02/13 00:24:54;;;;;;;17.65;14.18;;;;;;;5.16;88.36;97989.19;5074099;28;20096;-73
2024/02/13 00:27:20;;;;;;;15.90;12.55;;;;;;;5.04;88.32;97974.88;5074821;28;20489;-72
2024/02/13 00:29:45;;;;;;;17.60;12.38;;;;;;;5.13;88.02;97994.16;5073864;28;20016;-72
2024/02/13 00:32:12;;;;;;;18.52;12.13;;;;;;;5.08;88.05;97997.47;5074332;28;20043;-72
2024/02/13 00:34:37;;;;;;;13.20;10.10;;;;;;;5.00;87.50;98000.38;5074647;28;20031;-74
2024/02/13 00:37:03;;;;;;;18.23;12.85;;;;;;;4.95;87.79;98008.19;5074311;28;20040;-73
2024/02/13 00:39:29;;;;;;;18.17;12.35;;;;;;;4.80;87.47;97995.16;5074741;28;20025;-73
2024/02/13 00:41:57;;;;;;;15.35;13.55;;;;;;;4.87;87.40;98016.47;5076058;28;20036;-71
2024/02/13 00:44:23;;;;;;;22.77;15.38;;;;;;;4.75;87.30;98012.81;5066883;28;20024;-74
2024/02/13 00:46:50;;;;;;;23.60;15.20;;;;;;;4.83;87.67;98020.59;5075032;28;20029;-72
2024/02/13 00:49:16;;;;;;;123.78;24.63;;;;;;;4.80;87.41;98026.34;5075232;28;20424;-72
2024/02/13 00:51:42;;;;;;;18.20;13.70;;;;;;;4.77;87.76;98037.44;5074108;28;20040;-71
2024/02/13 00:54:13;;;;;;;60.47;17.08;;;;;;;4.67;88.33;98031.72;5075185;28;20186;-75
2024/02/13 00:56:40;;;;;;;18.27;13.45;;;;;;;4.70;87.73;98047.31;5074985;28;20040;-72
2024/02/13 00:59:07;;;;;;;19.23;14.07;;;;;;;4.67;87.67;98043.22;5074741;28;20051;-74
2024/02/13 01:01:34;;;;;;;32.20;17.15;;;;;;;4.63;88.09;98043.84;5074529;28;20495;-75
2024/02/13 01:04:00;;;;;;;18.73;12.80;;;;;;;4.50;88.22;98039.38;5072970;28;20074;-74
2024/02/13 01:06:25;;;;;;;24.00;16.08;;;;;;;4.51;87.73;98058.84;5072936;28;20044;-75
2024/02/13 01:08:51;;;;;;;20.48;15.00;;;;;;;4.39;87.46;98039.22;5072973;28;20029;-74
2024/02/13 01:11:18;;;;;;;20.83;14.77;;;;;;;4.45;88.04;98062.34;5074207;28;20040;-73
2024/02/13 01:13:43;;;;;;;56.80;16.30;;;;;;;4.22;88.62;98054.00;5074281;28;20016;-74
2024/02/13 01:16:09;;;;;;;90.55;25.73;;;;;;;4.30;88.27;98075.09;5072669;28;20048;-74
2024/02/13 01:18:35;;;;;;;157.10;29.27;;;;;;;4.19;88.47;98076.56;5074132;28;20081;-73
2024/02/13 01:21:00;;;;;;;20.15;12.48;;;;;;;4.13;88.08;98078.19;5072732;28;20043;-73
2024/02/13 01:23:26;;;;;;;18.08;13.25;;;;;;;4.08;88.15;98080.66;5072924;28;20547;-74
2024/02/13 01:25:51;;;;;;;26.38;15.23;;;;;;;4.10;88.52;98089.28;5072558;28;20507;-74
2024/02/13 01:28:19;;;;;;;21.77;14.25;;;;;;;4.07;88.18;98084.34;5073787;28;20057;-74
2024/02/13 01:30:45;;;;;;;16.38;12.55;;;;;;;4.04;88.08;98084.75;5054059;28;20172;-72
2024/02/13 01:33:10;;;;;;;20.30;14.93;;;;;;;4.06;87.99;98101.34;5072060;28;20489;-74
2024/02/13 01:35:37;;;;;;;15.90;11.73;;;;;;;4.09;87.81;98100.94;5072276;28;20039;-73
2024/02/13 01:38:09;;;;;;;16.55;12.45;;;;;;;4.06;87.41;98098.69;5073544;28;20025;-73
2024/02/13 01:40:34;;;;;;;16.35;12.63;;;;;;;4.02;87.77;98097.47;5073680;28;20177;-73
2024/02/13 01:42:59;;;;;;;18.80;12.63;;;;;;;4.03;87.67;98103.63;5052823;28;20548;-73
2024/02/13 01:45:25;;;;;;;19.23;14.13;;;;;;;3.99;87.58;98103.19;5073482;28;20037;-72
2024/02/13 01:47:50;;;;;;;18.60;13.60;;;;;;;3.90;87.86;98092.94;5072307;28;20021;-73
2024/02/13 01:50:20;;;;;;;19.00;13.63;;;;;;;3.90;87.21;98101.75;5072196;28;20570;-73
2024/02/13 01:52:46;;;;;;;22.75;14.25;;;;;;;3.90;87.55;98101.75;5073516;28;20396;-72
2024/02/13 01:55:12;;;;;;;28.55;16.27;;;;;;;3.97;88.02;98120.41;5071904;28;20025;-71
2024/02/13 01:57:40;;;;;;;16.20;11.75;;;;;;;3.96;87.94;98114.28;5072208;28;20047;-72
2024/02/13 02:00:13;;;;;;;23.65;15.48;;;;;;;3.91;88.31;98111.41;5072091;28;20111;-72
2024/02/13 02:02:41;;;;;;;19.50;14.63;;;;;;;3.97;87.83;98123.91;5053264;28;20503;-72
2024/02/13 02:05:10;;;;;;;14.70;11.23;;;;;;;3.90;87.97;98125.75;5069382;28;20123;-72
2024/02/13 02:07:40;;;;;;;19.13;12.65;;;;;;;3.86;87.76;98123.69;5071994;28;20106;-73
2024/02/13 02:10:07;;;;;;;33.72;20.83;;;;;;;3.73;88.19;98116.53;5071997;28;20071;-72
2024/02/13 02:12:34;;;;;;;27.85;17.17;;;;;;;3.72;88.50;98122.03;5072070;28;20039;-73
2024/02/13 02:15:00;;;;;;;24.38;16.50;;;;;;;3.72;87.60;98136.16;5072892;28;20090;-72
2024/02/13 02:17:25;;;;;;;23.83;15.95;;;;;;;3.79;88.19;98146.81;5071800;28;20109;-73
2024/02/13 02:19:51;;;;;;;24.08;16.20;;;;;;;3.73;88.25;98151.13;5071644;28;20111;-72
2024/02/13 02:22:16;;;;;;;21.65;13.77;;;;;;;3.76;88.11;98155.22;5073024;28;20036;-74
2024/02/13 02:24:42;;;;;;;23.88;15.32;;;;;;;3.72;88.03;98154.81;5072816;28;20029;-73
2024/02/13 02:27:07;;;;;;;27.10;15.60;;;;;;;3.69;88.03;98171.19;5072502;28;20051;-72
2024/02/13 02:29:34;;;;;;;21.50;14.73;;;;;;;3.65;87.83;98164.63;5072822;28;20024;-73
2024/02/13 02:31:59;;;;;;;18.42;13.18;;;;;;;3.55;87.85;98169.50;5072714;28;20024;-72
2024/02/13 02:34:25;;;;;;;21.55;13.52;;;;;;;3.57;87.91;98169.31;5054653;28;20085;-74
2024/02/13 02:36:50;;;;;;;21.52;14.40;;;;;;;3.59;87.93;98176.09;5072380;28;20392;-73
2024/02/13 02:39:19;;;;;;;24.48;16.65;;;;;;;3.60;87.73;98180.38;5072547;28;20496;-71
2024/02/13 02:41:45;;;;;;;30.48;18.02;;;;;;;3.52;87.84;98185.06;5057283;28;20028;-73
2024/02/13 02:44:10;;;;;;;30.83;17.95;;;;;;;3.46;87.86;98187.50;5069487;28;20043;-73
2024/02/13 02:46:36;;;;;;;89.35;23.80;;;;;;;3.39;88.24;98191.16;5072316;28;20024;-74
2024/02/13 02:49:01;;;;;;;140.90;25.08;;;;;;;3.30;88.21;98182.53;5072034;28;20036;-73
2024/02/13 02:51:27;;;;;;;225.40;30.92;;;;;;;3.35;88.08;98197.91;5072587;28;20039;-73
2024/02/13 02:53:52;;;;;;;121.88;23.98;;;;;;;3.23;88.27;98191.50;5071494;28;20376;-73
2024/02/13 02:56:18;;;;;;;162.10;33.47;;;;;;;3.32;87.90;98206.28;5071139;28;20024;-73
2024/02/13 02:58:43;;;;;;;56.83;15.13;;;;;;;3.26;87.97;98207.09;5054435;28;20029;-74
2024/02/13 03:01:09;;;;;;;127.03;22.65;;;;;;;3.27;88.38;98200.72;5072266;28;20012;-73
2024/02/13 03:03:35;;;;;;;125.03;28.20;;;;;;;3.26;88.33;98207.09;5050939;28;20437;-73
2024/02/13 03:06:01;;;;;;;23.25;17.40;;;;;;;3.11;88.14;98182.44;5070555;28;20086;-75
2024/02/13 03:08:27;;;;;;;34.40;18.83;;;;;;;3.24;87.79;98209.13;5071878;28;20384;-72
2024/02/13 03:10:53;;;;;;;27.60;19.05;;;;;;;3.16;87.83;98211.94;5070905;28;20373;-71
2024/02/13 03:13:18;;;;;;;45.13;27.33;;;;;;;3.16;87.81;98217.25;5071941;28;20044;-71
2024/02/13 03:15:44;;;;;;;29.25;20.55;;;;;;;3.14;87.90;98224.63;5071808;28;20085;-72
2024/02/13 03:18:10;;;;;;;36.03;22.45;;;;;;;3.15;87.91;98232.41;5067336;28;20081;-71
2024/02/13 03:20:35;;;;;;;29.98;20.13;;;;;;;3.16;87.74;98233.22;5070744;28;20020;-72
2024/02/13 03:23:01;;;;;;;29.52;19.05;;;;;;;3.14;87.04;98235.25;5070525;28;20034;-71
2024/02/13 03:25:26;;;;;;;40.13;23.55;;;;;;;3.05;87.95;98241.75;5071675;28;20050;-72
2024/02/13 03:27:52;;;;;;;25.67;16.63;;;;;;;3.03;87.35;98239.31;5071685;28;20033;-71
2024/02/13 03:30:17;;;;;;;30.00;16.50;;;;;;;3.03;87.41;98247.28;5071691;28;20033;-72
2024/02/13 03:32:44;;;;;;;27.42;18.48;;;;;;;3.05;88.14;98247.91;5071703;28;20024;-71
2024/02/13 03:35:09;;;;;;;41.80;24.67;;;;;;;3.04;87.89;98248.09;5071261;28;20043;-71
2024/02/13 03:37:34;;;;;;;37.50;22.70;;;;;;;3.00;87.77;98257.47;5071659;28;20394;-71
2024/02/13 03:40:06;;;;;;;28.10;18.17;;;;;;;3.00;87.83;98257.47;5071494;28;20511;-71
2024/02/13 03:42:31;;;;;;;26.92;20.00;;;;;;;2.99;87.90;98263.84;5070531;28;20480;-72
2024/02/13 03:44:57;;;;;;;22.42;17.52;;;;;;;2.90;87.63;98254.34;5070062;28;20043;-72
2024/02/13 03:47:22;;;;;;;23.45;17.98;;;;;;;2.89;87.15;98250.88;5071312;28;20033;-74
2024/02/13 03:49:48;;;;;;;24.80;18.70;;;;;;;2.96;87.13;98274.84;5070193;28;20035;-72
2024/02/13 03:52:14;;;;;;;25.40;19.05;;;;;;;2.96;87.50;98269.53;5071540;28;20040;-73
2024/02/13 03:54:40;;;;;;;26.05;18.17;;;;;;;2.74;87.25;98239.50;5070284;28;20028;-73
2024/02/13 03:57:05;;;;;;;32.83;20.45;;;;;;;2.91;87.66;98271.94;5075742;28;20139;-72
2024/02/13 03:59:31;;;;;;;27.13;18.80;;;;;;;2.89;87.23;98260.69;5064409;28;20017;-72
2024/02/13 04:01:58;;;;;;;25.73;17.90;;;;;;;2.73;87.35;98238.69;5063646;28;20040;-72
2024/02/13 04:04:23;;;;;;;23.83;17.10;;;;;;;2.90;87.51;98270.28;5072570;28;20309;-72
2024/02/13 04:06:49;;;;;;;28.58;20.13;;;;;;;2.79;87.64;98256.53;5075786;28;20036;-72
2024/02/13 04:09:14;;;;;;;25.42;18.77;;;;;;;2.99;87.62;98285.09;5074815;28;20127;-72
2024/02/13 04:11:43;;;;;;;31.17;20.70;;;;;;;2.82;87.48;98273.13;5073110;28;20036;-70
2024/02/13 04:14:11;;;;;;;29.00;20.20;;;;;;;2.94;87.45;98301.63;5072922;28;20052;-72
2024/02/13 04:16:39;;;;;;;35.65;21.40;;;;;;;2.90;87.74;98287.06;5070959;28;20093;-72
2024/02/13 04:19:04;;;;;;;43.90;25.48;;;;;;;2.82;87.58;98286.41;5071202;28;20031;-72
2024/02/13 04:21:29;;;;;;;67.22;28.60;;;;;;;2.77;88.42;98287.00;5070033;28;20041;-72
2024/02/13 04:23:55;;;;;;;341.20;46.63;;;;;;;2.79;88.17;98296.41;5071305;28;20048;-73
2024/02/13 04:26:20;;;;;;;500.05;54.67;;;;;;;2.69;88.72;98285.28;5069670;28;20036;-73
2024/02/13 04:28:46;;;;;;;672.88;66.30;;;;;;;2.68;88.98;98298.78;5049881;28;20115;-73
2024/02/13 04:31:11;;;;;;;466.08;64.88;;;;;;;2.63;88.90;98291.38;5069539;28;20047;-73
2024/02/13 04:33:37;;;;;;;246.25;48.38;;;;;;;2.58;88.78;98298.28;5069791;28;20035;-72
2024/02/13 04:36:03;;;;;;;111.60;38.50;;;;;;;2.57;88.51;98301.94;5070828;28;20036;-71
2024/02/13 04:38:29;;;;;;;130.35;41.53;;;;;;;2.60;88.43;98307.69;5071154;28;20020;-72
2024/02/13 04:40:55;;;;;;;42.50;24.52;;;;;;;2.46;88.69;98284.69;5067795;28;20115;-72
2024/02/13 04:43:21;;;;;;;37.60;23.27;;;;;;;2.57;88.56;98308.06;5069771;28;20407;-72
2024/02/13 04:45:46;;;;;;;35.80;24.17;;;;;;;2.49;89.04;98288.78;5070712;28;20056;-71
2024/02/13 04:48:12;;;;;;;45.00;26.40;;;;;;;2.51;88.58;98297.41;5069201;28;20614;-72
2024/02/13 04:50:37;;;;;;;35.83;23.52;;;;;;;2.60;88.38;98321.00;5070008;28;20032;-72
2024/02/13 04:53:03;;;;;;;32.47;22.33;;;;;;;2.62;88.29;98321.63;5070848;28;20024;-71
2024/02/13 04:55:29;;;;;;;37.30;23.25;;;;;;;2.68;88.82;98317.38;5070647;28;20041;-71
2024/02/13 04:57:56;;;;;;;38.88;24.52;;;;;;;2.68;89.25;98299.56;5070980;28;20025;-72
2024/02/13 05:00:25;;;;;;;50.75;28.50;;;;;;;2.73;89.04;98312.31;5070919;28;20036;-72
2024/02/13 05:08:22;;;;;;;39.50;25.45;;;;;;;2.88;90.09;98322.84;5072680;28;20434;-70
2024/02/13 05:10:48;;;;;;;36.65;26.50;;;;;;;2.89;89.58;98328.00;5074047;28;20055;-70
2024/02/13 05:13:15;;;;;;;43.08;29.50;;;;;;;2.94;89.51;98330.88;5072876;28;20131;-70
2024/02/13 05:15:41;;;;;;;37.60;26.60;;;;;;;2.86;89.60;98316.91;5070930;28;20665;-69
2024/02/13 05:18:06;;;;;;;34.85;24.48;;;;;;;2.96;89.58;98339.50;5069631;28;20028;-69
2024/02/13 05:20:35;;;;;;;49.97;29.42;;;;;;;2.89;90.08;98327.16;5074634;28;20025;-71
2024/02/13 05:23:01;;;;;;;37.72;25.75;;;;;;;2.93;89.79;98328.41;5073714;28;20119;-71
2024/02/13 05:25:26;;;;;;;32.78;24.38;;;;;;;2.98;89.78;98334.00;5071249;28;20063;-71
2024/02/13 05:27:52;;;;;;;61.20;33.60;;;;;;;2.97;90.03;98340.31;5071970;28;20035;-70
2024/02/13 05:30:18;;;;;;;45.20;32.45;;;;;;;2.88;89.93;98341.47;5072261;28;20039;-70
2024/02/13 05:32:43;;;;;;;105.03;46.35;;;;;;;2.82;90.02;98347.56;5071412;28;20124;-70
2024/02/13 05:35:09;;;;;;;383.48;61.88;;;;;;;2.72;90.19;98356.69;5072309;28;20474;-70
2024/02/13 05:37:37;;;;;;;293.75;55.35;;;;;;;2.47;89.84;98326.19;5072958;28;20033;-71
2024/02/13 05:40:05;;;;;;;432.48;60.42;;;;;;;2.61;90.20;98359.84;5072541;28;20032;-71
2024/02/13 05:42:30;;;;;;;49.15;28.25;;;;;;;2.59;89.86;98364.53;5073831;28;20064;-71
2024/02/13 05:44:56;;;;;;;104.07;29.67;;;;;;;2.56;89.55;98359.63;5069905;28;20048;-71
2024/02/13 05:47:23;;;;;;;45.83;28.40;;;;;;;2.56;90.09;98358.78;5067257;28;20512;-71
2024/02/13 05:49:49;;;;;;;56.97;33.63;;;;;;;2.57;89.61;98360.41;5072397;28;20021;-72
2024/02/13 05:52:14;;;;;;;62.25;34.42;;;;;;;2.52;89.34;98358.31;5073605;28;20040;-70
2024/02/13 05:54:39;;;;;;;57.63;33.92;;;;;;;2.51;89.68;98367.31;5073694;28;20455;-71
2024/02/13 05:57:05;;;;;;;56.25;34.22;;;;;;;2.51;89.35;98372.63;5072537;28;20044;-70
2024/02/13 05:59:31;;;;;;;109.40;41.92;;;;;;;2.40;89.52;98354.53;5062526;28;20021;-70
2024/02/13 06:01:58;;;;;;;110.55;39.80;;;;;;;2.42;89.42;98367.63;5065109;28;20038;-71
2024/02/13 06:04:24;;;;;;;115.70;44.88;;;;;;;2.47;89.29;98376.69;5065543;28;20028;-71
2024/02/13 06:06:50;;;;;;;38.00;27.52;;;;;;;2.47;89.71;98375.88;5072181;28;20040;-70
2024/02/13 06:09:24;;;;;;;30.65;22.88;;;;;;;2.32;89.57;98367.94;5070955;28;20017;-71
2024/02/13 06:11:50;;;;;;;43.70;27.08;;;;;;;2.34;89.21;98365.09;5068260;28;20105;-70
2024/02/13 06:14:16;;;;;;;42.40;28.20;;;;;;;2.46;89.24;98388.31;5066252;28;20030;-70
2024/02/13 06:16:41;;;;;;;42.03;27.80;;;;;;;2.46;89.33;98390.97;5072013;28;20040;-70
2024/02/13 06:19:07;;;;;;;38.00;26.70;;;;;;;2.47;89.33;98392.66;5071984;28;20575;-70
2024/02/13 06:21:33;;;;;;;43.70;31.20;;;;;;;2.46;89.52;98393.63;5072201;28;20063;-71
2024/02/13 06:23:58;;;;;;;52.47;32.42;;;;;;;2.50;89.38;98407.34;5073435;28;20051;-71
2024/02/13 06:26:24;;;;;;;39.85;27.77;;;;;;;2.47;89.14;98413.91;5072900;28;20508;-70
2024/02/13 06:28:50;;;;;;;47.45;30.58;;;;;;;2.46;89.68;98422.88;5071972;28;20017;-72
2024/02/13 06:31:16;;;;;;;206.27;57.28;;;;;;;2.43;89.43;98417.09;5061909;28;20083;-71
2024/02/13 06:33:41;;;;;;;111.18;44.88;;;;;;;2.44;89.00;98419.59;5067006;28;20025;-71
2024/02/13 06:36:07;;;;;;;554.90;80.32;;;;;;;2.38;89.21;98428.28;5070603;28;20404;-72
2024/02/13 06:38:34;;;;;;;605.70;106.18;;;;;;;2.24;89.59;98413.19;5071920;28;20020;-71
2024/02/13 06:41:00;;;;;;;440.02;81.18;;;;;;;2.33;89.39;98433.38;5072806;28;20071;-71
2024/02/13 06:43:26;;;;;;;235.82;67.57;;;;;;;2.30;90.03;98439.03;5072844;28;20052;-71
2024/02/13 06:45:51;;;;;;;86.13;41.55;;;;;;;2.24;89.74;98423.81;5072705;28;20043;-71
2024/02/13 06:48:17;;;;;;;118.03;57.08;;;;;;;2.40;89.57;98439.59;5073405;28;20028;-70
2024/02/13 06:50:43;;;;;;;108.03;52.28;;;;;;;2.44;90.02;98435.53;5072758;28;20498;-70
2024/02/13 06:53:08;;;;;;;106.10;50.38;;;;;;;2.36;90.25;98425.00;5072969;28;20026;-70
2024/02/13 06:55:36;;;;;;;122.38;52.30;;;;;;;2.47;90.24;98453.78;5073084;28;20036;-71
2024/02/13 06:58:02;;;;;;;134.00;50.70;;;;;;;2.48;89.93;98447.44;5071182;28;20032;-71
2024/02/13 07:00:30;;;;;;;46.55;29.25;;;;;;;2.35;90.45;98428.69;5072662;28;20025;-71
2024/02/13 07:02:55;;;;;;;69.40;35.58;;;;;;;2.51;90.45;98451.56;5072573;28;20029;-71
2024/02/13 07:05:21;;;;;;;48.03;29.77;;;;;;;2.58;90.43;98453.28;5072187;28;20035;-71
2024/02/13 07:07:47;;;;;;;68.28;35.28;;;;;;;2.63;90.29;98452.72;5072529;28;20031;-71
2024/02/13 07:10:13;;;;;;;75.57;35.03;;;;;;;2.77;90.83;98460.66;5072861;28;20094;-71
2024/02/13 07:12:38;;;;;;;51.92;30.17;;;;;;;2.84;90.72;98458.06;5072274;28;20048;-71
2024/02/13 07:15:05;;;;;;;65.95;33.97;;;;;;;2.94;91.13;98465.72;5072058;28;20036;-71
2024/02/13 07:17:31;;;;;;;44.58;27.85;;;;;;;3.04;90.55;98474.19;5072318;28;20023;-71
2024/02/13 07:19:59;;;;;;;63.08;33.92;;;;;;;3.03;91.10;98468.06;5071936;28;20048;-68
2024/02/13 07:22:24;;;;;;;35.40;25.30;;;;;;;3.18;91.15;98473.31;5064227;28;20074;-69
2024/02/13 07:24:50;;;;;;;43.70;28.10;;;;;;;3.26;91.32;98478.50;5070711;28;20459;-71
2024/02/13 07:27:16;;;;;;;60.22;32.55;;;;;;;3.34;91.23;98483.69;5070566;28;20052;-68
2024/02/13 07:29:42;;;;;;;55.25;31.67;;;;;;;3.43;91.08;98482.56;5071711;28;20142;-69
2024/02/13 07:32:08;;;;;;;45.40;29.45;;;;;;;3.48;91.39;98483.63;5071551;28;20114;-71
2024/02/13 07:34:37;;;;;;;53.53;32.15;;;;;;;3.55;91.35;98488.19;5070683;28;20033;-71
2024/02/13 07:37:05;;;;;;;68.45;36.97;;;;;;;3.63;91.64;98494.19;5071221;28;20031;-71
2024/02/13 07:39:30;;;;;;;56.47;35.00;;;;;;;3.65;91.64;98497.47;5070487;28;20135;-72
2024/02/13 07:41:56;;;;;;;47.45;31.42;;;;;;;3.71;92.06;98494.03;5071655;28;20177;-72
2024/02/13 07:44:21;;;;;;;68.13;39.67;;;;;;;3.78;91.49;98494.91;5071572;28;20040;-72
2024/02/13 07:46:46;;;;;;;55.95;35.05;;;;;;;3.83;91.98;98497.81;5070478;28;20024;-71
2024/02/13 07:49:13;;;;;;;54.45;33.95;;;;;;;3.86;91.97;98500.09;5071265;28;20025;-71
2024/02/13 07:51:38;;;;;;;78.88;40.47;;;;;;;3.85;92.46;98511.75;5071541;28;20024;-72
2024/02/13 07:54:04;;;;;;;83.50;40.40;;;;;;;3.87;92.48;98515.06;5069283;28;20032;-72
2024/02/13 07:56:29;;;;;;;51.97;32.58;;;;;;;3.96;92.18;98503.25;5065054;28;20028;-71
2024/02/13 07:58:58;;;;;;;54.83;33.30;;;;;;;4.04;92.58;98519.06;5070022;28;20073;-72
2024/02/13 08:01:25;;;;;;;75.80;42.72;;;;;;;4.14;92.10;98516.88;5069610;28;20699;-71
2024/02/13 08:03:54;;;;;;;76.93;40.75;;;;;;;4.13;92.51;98523.22;5069833;28;20042;-72
2024/02/13 08:06:19;;;;;;;65.60;37.60;;;;;;;4.21;92.30;98511.59;5071221;28;20547;-72
2024/02/13 08:08:46;;;;;;;45.75;31.38;;;;;;;4.22;92.20;98500.72;5070238;28;20115;-72
2024/02/13 08:11:13;;;;;;;46.90;30.55;;;;;;;4.45;92.62;98529.78;5070024;28;20039;-72
2024/02/13 08:13:39;;;;;;;56.60;33.42;;;;;;;4.37;91.64;98494.44;5069992;28;20040;-72
2024/02/13 08:16:06;;;;;;;51.92;32.03;;;;;;;4.58;92.33;98523.66;5070672;28;20028;-72
2024/02/13 08:18:33;;;;;;;56.17;32.80;;;;;;;4.63;91.65;98510.56;5071210;28;20041;-72
2024/02/13 08:20:58;;;;;;;49.97;32.67;;;;;;;4.67;91.90;98517.97;5069940;28;20028;-71
2024/02/13 08:23:24;;;;;;;54.97;33.40;;;;;;;4.71;91.67;98526.41;5061787;28;20691;-72
2024/02/13 08:25:49;;;;;;;48.97;30.48;;;;;;;4.78;92.37;98520.06;5070853;28;20115;-72
2024/02/13 08:28:15;;;;;;;47.88;29.27;;;;;;;4.85;92.13;98522.78;5069643;28;20087;-72
2024/02/13 08:30:41;;;;;;;46.13;29.05;;;;;;;4.89;91.81;98521.34;5069142;28;20068;-73
2024/02/13 08:33:06;;;;;;;43.78;29.17;;;;;;;4.93;92.14;98517.25;5069247;28;20101;-73
2024/02/13 08:35:32;;;;;;;50.42;29.90;;;;;;;4.88;91.71;98503.69;5069608;28;20020;-72
2024/02/13 08:37:57;;;;;;;38.47;26.25;;;;;;;4.99;92.23;98513.78;5066746;28;20036;-73
2024/02/13 08:40:23;;;;;;;49.67;29.98;;;;;;;5.07;91.95;98521.59;5061279;28;20062;-73
2024/02/13 08:42:48;;;;;;;48.10;29.17;;;;;;;5.16;92.05;98520.38;5070977;28;20071;-71
2024/02/13 08:45:13;;;;;;;45.22;30.05;;;;;;;5.21;91.36;98504.59;5074393;28;20150;-71
2024/02/13 08:47:39;;;;;;;51.17;30.27;;;;;;;5.29;91.72;98522.28;5053511;28;20064;-71
2024/02/13 08:50:05;;;;;;;46.72;30.27;;;;;;;5.34;92.12;98520.66;5072321;28;20538;-71
2024/02/13 08:52:31;;;;;;;48.47;31.27;;;;;;;5.43;91.19;98514.09;5074779;28;20044;-72
2024/02/13 08:54:57;;;;;;;50.95;32.58;;;;;;;5.46;91.99;98521.66;5073212;28;20059;-73
2024/02/13 08:57:22;;;;;;;43.10;30.77;;;;;;;5.44;91.70;98515.72;5074465;28;20425;-70
2024/02/13 08:59:49;;;;;;;40.45;26.92;;;;;;;5.40;91.72;98513.66;5073070;28;20020;-73
2024/02/13 09:02:15;;;;;;;44.72;29.10;;;;;;;5.57;91.21;98525.59;5074501;28;20036;-72
2024/02/13 09:04:40;;;;;;;41.38;29.00;;;;;;;5.61;92.05;98521.47;5073016;28;20112;-72
2024/02/13 09:07:06;;;;;;;46.05;30.00;;;;;;;5.60;91.79;98528.66;5074318;28;20515;-73
2024/02/13 09:09:34;;;;;;;36.22;26.98;;;;;;;5.74;91.00;98531.38;5074339;28;20028;-72
2024/02/13 09:12:00;;;;;;;46.05;28.75;;;;;;;5.73;91.53;98519.84;5071968;28;20036;-72
2024/02/13 09:14:25;;;;;;;43.38;28.40;;;;;;;5.89;91.93;98534.66;5069758;28;20499;-72
2024/02/13 09:16:51;;;;;;;50.60;31.42;;;;;;;5.98;91.72;98534.25;5074062;28;20629;-72
2024/02/13 09:19:16;;;;;;;51.58;35.20;;;;;;;6.03;91.25;98542.47;5074121;28;20021;-72
2024/02/13 09:21:43;;;;;;;47.63;33.05;;;;;;;6.08;91.54;98540.00;5070285;28;20488;-72
2024/02/13 09:24:09;;;;;;;39.60;28.45;;;;;;;6.04;91.52;98545.97;5067130;28;20392;-71
2024/02/13 09:26:35;;;;;;;45.67;27.77;;;;;;;6.08;91.35;98549.88;5071518;28;20115;-73
2024/02/13 09:29:01;;;;;;;36.95;24.50;;;;;;;6.02;91.16;98548.03;5073560;28;20460;-72
2024/02/13 09:31:26;;;;;;;42.55;29.33;;;;;;;6.07;90.75;98526.84;5074129;28;20036;-73
2024/02/13 09:33:52;;;;;;;45.80;27.85;;;;;;;6.28;90.75;98534.63;5074080;28;20039;-72
2024/02/13 09:36:20;;;;;;;46.03;29.45;;;;;;;6.25;91.60;98524.38;5073617;28;20112;-72
2024/02/13 09:38:46;;;;;;;41.05;28.45;;;;;;;6.33;90.00;98540.16;5073706;28;20020;-70
2024/02/13 09:41:12;;;;;;;42.65;28.67;;;;;;;6.33;90.88;98542.84;5073747;28;20032;-70
2024/02/13 09:43:37;;;;;;;38.17;27.58;;;;;;;6.30;90.58;98543.28;5072305;28;20017;-72
2024/02/13 09:46:03;;;;;;;39.55;26.83;;;;;;;6.37;90.84;98543.25;5072060;28;20032;-73
2024/02/13 09:48:33;;;;;;;43.20;27.02;;;;;;;6.36;90.07;98541.59;5073079;28;20053;-73
2024/02/13 09:51:03;;;;;;;44.20;28.58;;;;;;;6.38;90.73;98547.56;5071339;28;20107;-72
2024/02/13 09:53:29;;;;;;;46.10;31.58;;;;;;;6.36;90.22;98547.78;5066905;28;20044;-72
2024/02/13 09:55:58;;;;;;;55.53;34.97;;;;;;;6.39;90.95;98547.38;5072770;28;20028;-72
2024/02/13 09:58:24;;;;;;;41.67;28.42;;;;;;;6.56;90.02;98548.53;5068208;28;20115;-72
2024/02/13 10:00:53;;;;;;;41.28;28.25;;;;;;;6.65;90.40;98557.97;5072249;28;20111;-72
2024/02/13 10:03:19;;;;;;;40.17;27.42;;;;;;;6.75;89.80;98562.91;5072083;28;20040;-72
2024/02/13 10:05:44;;;;;;;32.58;25.52;;;;;;;6.77;89.41;98560.84;5073033;28;20548;-72
2024/02/13 10:08:11;;;;;;;35.83;25.48;;;;;;;6.79;90.09;98559.59;5072991;28;20047;-72
2024/02/13 10:10:37;;;;;;;36.83;23.40;;;;;;;6.80;89.75;98555.91;5073147;28;20035;-72
2024/02/13 10:13:03;;;;;;;33.13;23.35;;;;;;;6.80;89.25;98560.41;5071717;28;20041;-73
2024/02/13 10:15:44;;;;;;;37.30;22.90;;;;;;;6.78;88.84;98563.31;5071868;28;20495;-73
2024/02/13 10:18:13;;;;;;;35.70;25.73;;;;;;;6.81;88.93;98557.53;5072666;28;20450;-73
2024/02/13 10:20:41;;;;;;;42.75;26.27;;;;;;;6.85;89.19;98564.13;5073596;28;20074;-73
2024/02/13 10:23:11;;;;;;;32.47;22.92;;;;;;;6.88;89.75;98563.66;5071646;28;20033;-73
2024/02/13 10:25:37;;;;;;;40.17;23.02;;;;;;;6.88;88.85;98547.59;5071689;28;20041;-73
2024/02/13 10:28:05;;;;;;;32.20;22.42;;;;;;;6.98;89.06;98564.06;5068717;28;20540;-73
2024/02/13 10:30:31;;;;;;;32.65;22.63;;;;;;;6.97;88.51;98577.66;5067780;28;20049;-73
2024/02/13 10:33:01;;;;;;;38.05;24.05;;;;;;;7.00;88.23;98555.00;5071605;28;20027;-73
2024/02/13 10:35:29;;;;;;;34.58;24.25;;;;;;;7.04;88.93;98577.63;5065493;28;20041;-73
2024/02/13 10:37:55;;;;;;;33.92;24.35;;;;;;;7.19;89.04;98564.81;5071434;28;20021;-73
2024/02/13 10:40:23;;;;;;;30.30;21.63;;;;;;;7.42;88.78;98565.09;5071289;28;20393;-72
2024/02/13 10:42:49;;;;;;;29.70;21.83;;;;;;;7.47;88.04;98562.56;5071446;28;20468;-73
2024/02/13 10:45:17;;;;;;;30.85;21.88;;;;;;;7.51;88.67;98569.16;5072236;28;20043;-73
2024/02/13 10:47:49;;;;;;;35.58;21.75;;;;;;;7.61;88.13;98564.13;5071279;28;20024;-72
2024/02/13 10:50:15;;;;;;;28.98;21.67;;;;;;;7.60;87.71;98541.06;5071178;28;20040;-73
2024/02/13 10:52:41;;;;;;;27.88;20.65;;;;;;;7.70;88.08;98562.00;5071229;28;20025;-73
2024/02/13 10:55:10;;;;;;;31.60;20.77;;;;;;;7.75;87.96;98554.16;5053255;28;20090;-71
2024/02/13 10:57:36;;;;;;;31.48;20.20;;;;;;;7.80;86.91;98556.97;5072219;28;20111;-71
2024/02/13 11:00:14;;;;;;;27.00;18.55;;;;;;;7.77;87.43;98558.22;5070995;28;20463;-71
2024/02/13 11:02:43;;;;;;;29.13;19.38;;;;;;;7.68;86.70;98559.53;5071517;28;20032;-74
2024/02/13 11:05:09;;;;;;;27.52;19.98;;;;;;;7.72;86.73;98566.13;5058580;28;20051;-74
2024/02/13 11:07:35;;;;;;;27.92;19.13;;;;;;;7.74;87.48;98564.03;5070885;28;20037;-72
2024/02/13 11:10:08;;;;;;;27.30;18.55;;;;;;;7.80;86.91;98552.44;5071985;28;20023;-74
2024/02/13 11:12:38;;;;;;;24.90;18.88;;;;;;;8.00;86.18;98563.03;5051955;28;20122;-72
2024/02/13 11:15:08;;;;;;;28.27;18.52;;;;;;;8.01;86.81;98564.66;5053652;28;20040;-74
2024/02/13 11:17:35;;;;;;;25.25;17.60;;;;;;;8.06;86.02;98552.22;5071927;28;20042;-74
2024/02/13 11:20:09;;;;;;;27.60;17.88;;;;;;;8.13;85.69;98558.38;5070613;28;20488;-74
2024/02/13 11:22:37;;;;;;;26.08;17.40;;;;;;;7.85;85.90;98523.13;5071996;28;20060;-74
2024/02/13 11:25:08;;;;;;;24.50;17.02;;;;;;;7.96;86.06;98541.16;5070308;28;20025;-74